ROMMA est une association bénévole à but non lucratif. Votre soutien est indispensable : ADHERER à ROMMA ou FAIRE un DON

Taninges - (74, Haute-Savoie)

Vallée du Giffre (635 m)   Longitude: 06° 35' 38" E   Latitude: 46° 06' 21" N Station romma n°98
 

Détail journalier du     <<     >>

Température Precipitation Humidité Pression Vent Dir Rafale Dir. rafale Ensol.
Heure (°C) (mm) (%) (hPa) (km/h) (km/h) (min)
01:00 5.909210241SO3OSO0
02:00 4.9094102403SO0
03:00 3.9094102405SE0
04:00 3.2095102403ESE0
05:00 2.2095102402ESE0
06:00 2.20961025000
07:00 2.1096102503ESE0
08:00 6.0097102505E50
09:00 9.308910252E6ENE60
10:00 13.107410242SSO10SO60
11:00 14.207110247OSO18OSO60
12:00 16.0070102410SO24OSO60
13:00 17.9063102311SO23SO60
14:00 18.7049102310OSO21O60
15:00 19.205310238O19NO60
16:00 19.3047102310O21O45
17:00 20.104810239O24OSO60
18:00 19.4044102310O26O55
19:00 19.204510239ONO23O35
20:00 17.905310233NE10O45
21:00 16.005110233NE15ENE0
22:00 13.206110231NNE8NO0
23:00 11.307410243OSO16NE0
minuit 9.108110241OSO5OSO0

Graphique du 30-05-2019

 

Serveur OMMA